Time,TemperatureF,DewpointF,PressureIn,WindDirection,WindDirectionDegrees,WindSpeedMPH,WindSpeedGustMPH,Humidity,HourlyPrecipIn,Conditions,Clouds,dailyrainin,SoftwareType,DateUTC
2013-03-12 00:03:00,29.1,20.6,30.03,WNW,282,0.0,0.0,70,0.00,,CLR,0.00,VWS V14.01,2013-03-12 05:03:00,
2013-03-12 00:08:00,29.5,20.9,30.03,WNW,282,0.0,0.0,70,0.00,,CLR,0.00,VWS V14.01,2013-03-12 05:08:00,
2013-03-12 00:13:00,29.7,21.1,30.03,WNW,282,0.0,0.0,70,0.00,,CLR,0.00,VWS V14.01,2013-03-12 05:13:00,
2013-03-12 00:18:00,29.7,21.1,30.03,WNW,282,0.0,0.0,70,0.00,,CLR,0.00,VWS V14.01,2013-03-12 05:18:00,
2013-03-12 00:23:00,29.5,21.3,30.03,WNW,282,0.0,0.0,71,0.00,,CLR,0.00,VWS V14.01,2013-03-12 05:23:00,
2013-03-12 00:28:00,29.7,21.5,30.03,WNW,282,0.0,0.0,71,0.00,,CLR,0.00,VWS V14.01,2013-03-12 05:28:00,
2013-03-12 00:33:00,30.0,22.3,30.03,WNW,282,0.0,0.0,73,0.00,,CLR,0.00,VWS V14.01,2013-03-12 05:33:00,
2013-03-12 00:38:00,30.2,22.5,30.03,WNW,282,0.0,0.0,73,0.00,,CLR,0.00,VWS V14.01,2013-03-12 05:38:00,
2013-03-12 00:43:00,30.0,22.3,30.03,WNW,282,0.0,0.0,73,0.00,,CLR,0.00,VWS V14.01,2013-03-12 05:43:00,
2013-03-12 00:48:00,30.0,22.3,30.03,WNW,282,0.0,0.0,73,0.00,,CLR,0.00,VWS V14.01,2013-03-12 05:48:00,
2013-03-12 00:53:00,30.0,22.3,30.03,WNW,282,0.0,0.0,73,0.00,,CLR,0.00,VWS V14.01,2013-03-12 05:53:00,
2013-03-12 00:58:00,29.8,22.1,30.03,WNW,282,0.0,0.0,73,0.00,,CLR,0.00,VWS V14.01,2013-03-12 05:58:00,
2013-03-12 01:03:00,29.5,21.8,30.03,WNW,282,0.0,0.0,73,0.00,,CLR,0.00,VWS V14.01,2013-03-12 06:03:00,
2013-03-12 01:08:00,28.9,21.3,30.03,WNW,282,0.0,0.0,73,0.00,,CLR,0.00,VWS V14.01,2013-03-12 06:08:00,
2013-03-12 01:13:00,28.6,20.9,30.03,WNW,282,0.0,0.0,73,0.00,,CLR,0.00,VWS V14.01,2013-03-12 06:13:00,
2013-03-12 01:18:00,28.4,21.2,30.03,WNW,282,0.0,0.0,74,0.00,,CLR,0.00,VWS V14.01,2013-03-12 06:18:00,
2013-03-12 01:23:00,28.4,21.2,30.03,WNW,282,0.0,0.0,74,0.00,,CLR,0.00,VWS V14.01,2013-03-12 06:23:00,
2013-03-12 01:28:00,28.4,21.2,30.03,WNW,282,0.0,0.0,74,0.00,,CLR,0.00,VWS V14.01,2013-03-12 06:28:00,
2013-03-12 01:33:00,28.2,21.0,30.03,SW,221,3.9,4.1,74,0.00,,CLR,0.00,VWS V14.01,2013-03-12 06:33:00,
2013-03-12 01:38:00,28.4,21.6,30.03,SSW,212,0.0,3.5,75,0.00,,CLR,0.00,VWS V14.01,2013-03-12 06:38:00,
2013-03-12 01:43:00,28.6,21.8,30.06,South,170,0.0,0.0,75,0.00,,CLR,0.00,VWS V14.01,2013-03-12 06:43:00,
2013-03-12 01:48:00,28.9,22.1,30.06,SE,125,3.9,4.1,75,0.00,,CLR,0.00,VWS V14.01,2013-03-12 06:48:00,
2013-03-12 01:54:00,29.1,22.3,30.06,ESE,122,0.0,0.0,75,0.00,,CLR,0.00,VWS V14.01,2013-03-12 06:54:00,
2013-03-12 01:59:00,29.5,23.0,30.03,ESE,122,0.0,0.0,77,0.00,,CLR,0.00,VWS V14.01,2013-03-12 06:59:00,
2013-03-12 02:04:00,29.1,22.3,30.03,West,261,3.9,4.7,75,0.00,,CLR,0.00,VWS V14.01,2013-03-12 07:04:00,
2013-03-12 02:09:00,28.6,21.8,30.03,West,269,3.3,4.1,75,0.00,,CLR,0.00,VWS V14.01,2013-03-12 07:09:00,
2013-03-12 02:14:00,28.6,22.2,30.06,West,269,2.8,4.1,77,0.00,,CLR,0.00,VWS V14.01,2013-03-12 07:14:00,
2013-03-12 02:19:00,28.6,22.2,30.06,West,269,0.0,0.0,77,0.00,,CLR,0.00,VWS V14.01,2013-03-12 07:19:00,
2013-03-12 02:24:00,28.6,22.2,30.06,West,270,0.0,0.0,77,0.00,,CLR,0.00,VWS V14.01,2013-03-12 07:24:00,
2013-03-12 02:29:00,28.4,22.0,30.06,West,270,0.0,0.0,77,0.00,,CLR,0.00,VWS V14.01,2013-03-12 07:29:00,
2013-03-12 02:34:00,28.4,22.0,30.06,West,269,0.0,0.0,77,0.00,,CLR,0.00,VWS V14.01,2013-03-12 07:34:00,
2013-03-12 02:39:00,28.0,21.6,30.06,West,269,0.0,0.0,77,0.00,,CLR,0.00,VWS V14.01,2013-03-12 07:39:00,
2013-03-12 02:44:00,27.9,21.5,30.06,West,270,0.0,0.0,77,0.00,,CLR,0.00,VWS V14.01,2013-03-12 07:44:00,
2013-03-12 02:49:00,27.7,21.3,30.06,West,269,0.0,0.0,77,0.00,,CLR,0.00,VWS V14.01,2013-03-12 07:49:00,
2013-03-12 02:54:00,28.2,22.2,30.06,West,269,0.0,0.0,78,0.00,,CLR,0.00,VWS V14.01,2013-03-12 07:54:00,
2013-03-12 02:59:00,28.9,22.9,30.06,West,269,0.0,0.0,78,0.00,,CLR,0.00,VWS V14.01,2013-03-12 07:59:00,
2013-03-12 03:04:00,29.5,23.4,30.06,West,269,0.0,0.0,78,0.00,,CLR,0.00,VWS V14.01,2013-03-12 08:04:00,
2013-03-12 03:09:00,29.8,23.8,30.06,West,269,0.0,0.0,78,0.00,,CLR,0.00,VWS V14.01,2013-03-12 08:09:00,
2013-03-12 03:14:00,30.0,24.0,30.06,West,269,0.0,0.0,78,0.00,,CLR,0.00,VWS V14.01,2013-03-12 08:14:00,
2013-03-12 03:19:00,30.2,24.1,30.06,West,269,0.0,0.0,78,0.00,,CLR,0.00,VWS V14.01,2013-03-12 08:19:00,
2013-03-12 03:24:00,30.2,24.5,30.06,West,269,0.0,0.0,79,0.00,,CLR,0.00,VWS V14.01,2013-03-12 08:24:00,
2013-03-12 03:29:00,30.2,24.5,30.03,West,269,0.0,0.0,79,0.00,,CLR,0.00,VWS V14.01,2013-03-12 08:29:00,
2013-03-12 03:34:00,30.4,24.7,30.03,West,269,0.0,0.0,79,0.00,,CLR,0.00,VWS V14.01,2013-03-12 08:34:00,
2013-03-12 03:39:00,30.7,25.1,30.03,West,269,0.0,0.0,79,0.00,,CLR,0.00,VWS V14.01,2013-03-12 08:39:00,
2013-03-12 03:44:00,31.1,25.4,30.03,West,269,0.0,0.0,79,0.00,,CLR,0.00,VWS V14.01,2013-03-12 08:44:00,
2013-03-12 03:49:00,31.3,25.6,30.03,West,270,0.0,0.0,79,0.00,,CLR,0.00,VWS V14.01,2013-03-12 08:49:00,
2013-03-12 03:54:00,31.5,26.2,30.03,West,269,0.0,0.0,81,0.00,,CLR,0.00,VWS V14.01,2013-03-12 08:54:00,
2013-03-12 03:59:00,32.0,26.7,30.03,NNE,28,4.4,4.7,81,0.00,,CLR,0.00,VWS V14.01,2013-03-12 08:59:00,
2013-03-12 04:04:00,32.4,27.4,30.03,NNE,29,3.9,4.7,82,0.00,,SCT110,0.00,VWS V14.01,2013-03-12 09:04:00,
2013-03-12 04:10:00,32.7,27.8,30.03,NNE,29,3.3,4.1,82,0.00,,SCT110,0.00,VWS V14.01,2013-03-12 09:10:00,
2013-03-12 04:15:00,32.9,28.0,30.03,NNE,29,3.3,4.7,82,0.00,,SCT110,0.00,VWS V14.01,2013-03-12 09:15:00,
2013-03-12 04:20:00,33.1,27.8,30.03,NNE,29,2.8,3.5,81,0.00,,SCT100,0.00,VWS V14.01,2013-03-12 09:20:00,
2013-03-12 04:25:00,33.1,27.4,30.03,NNE,29,0.0,4.1,79,0.00,,SCT100,0.00,VWS V14.01,2013-03-12 09:25:00,
2013-03-12 04:30:00,33.1,27.4,30.03,NNE,29,0.0,0.0,79,0.00,,SCT100,0.00,VWS V14.01,2013-03-12 09:30:00,
2013-03-12 04:35:00,32.7,26.6,30.03,WNW,282,3.9,4.7,78,0.00,,SCT100,0.00,VWS V14.01,2013-03-12 09:35:00,
2013-03-12 04:40:00,32.5,26.4,30.06,West,263,4.4,4.7,78,0.00,,SCT090,0.00,VWS V14.01,2013-03-12 09:40:00,
2013-03-12 04:45:00,32.5,26.4,30.06,WSW,256,2.8,3.5,78,0.00,,SCT090,0.00,VWS V14.01,2013-03-12 09:45:00,
2013-03-12 04:50:00,32.7,26.6,30.06,WSW,238,3.9,4.1,78,0.00,,SCT090,0.00,VWS V14.01,2013-03-12 09:50:00,
2013-03-12 04:55:00,32.9,26.8,30.06,WSW,251,4.4,4.7,78,0.00,,SCT090,0.00,VWS V14.01,2013-03-12 09:55:00,
2013-03-12 05:00:00,33.1,26.9,30.06,West,262,4.4,4.7,78,0.00,,BKN075,0.00,VWS V14.01,2013-03-12 10:00:00,
2013-03-12 05:05:00,33.3,27.1,30.06,West,273,5.5,5.8,78,0.00,,BKN075,0.00,VWS V14.01,2013-03-12 10:05:00,
2013-03-12 05:10:00,33.3,27.1,30.09,WSW,248,5.0,7.6,78,0.00,,BKN075,0.00,VWS V14.01,2013-03-12 10:10:00,
2013-03-12 05:15:00,33.4,27.7,30.09,WSW,247,5.0,5.8,79,0.00,,BKN075,0.00,VWS V14.01,2013-03-12 10:15:00,
2013-03-12 05:20:00,33.3,27.5,30.09,WSW,258,5.0,7.6,79,0.00,,OVC060,0.00,VWS V14.01,2013-03-12 10:20:00,
2013-03-12 05:25:00,33.3,27.5,30.09,SW,236,3.3,6.4,79,0.00,,OVC060,0.00,VWS V14.01,2013-03-12 10:25:00,
2013-03-12 05:31:00,33.3,27.5,30.09,West,272,3.9,5.2,79,0.00,,OVC060,0.00,VWS V14.01,2013-03-12 10:31:00,
2013-03-12 05:36:00,33.3,27.5,30.09,West,270,3.9,4.7,79,0.00,,OVC060,0.00,VWS V14.01,2013-03-12 10:36:00,
2013-03-12 05:41:00,33.3,27.5,30.12,West,268,0.0,0.0,79,0.00,,OVC060,0.00,VWS V14.01,2013-03-12 10:41:00,
2013-03-12 05:46:00,33.3,27.5,30.12,SSW,211,0.0,2.9,79,0.00,,OVC060,0.00,VWS V14.01,2013-03-12 10:46:00,
2013-03-12 05:51:00,33.4,28.1,30.12,WNW,295,3.3,4.1,81,0.00,,OVC060,0.00,VWS V14.01,2013-03-12 10:51:00,
2013-03-12 05:56:00,33.6,28.3,30.12,West,281,0.0,3.5,81,0.00,,OVC060,0.00,VWS V14.01,2013-03-12 10:56:00,
2013-03-12 06:01:00,33.6,28.3,30.12,SW,227,4.4,4.7,81,0.00,,OVC060,0.00,VWS V14.01,2013-03-12 11:01:00,
2013-03-12 06:06:00,33.8,28.5,30.12,SW,236,0.0,2.9,81,0.00,,OVC060,0.00,VWS V14.01,2013-03-12 11:06:00,
2013-03-12 06:11:00,33.8,28.5,30.12,West,263,3.3,3.5,81,0.00,,OVC060,0.00,VWS V14.01,2013-03-12 11:11:00,
2013-03-12 06:16:00,34.0,28.6,30.12,WSW,238,3.9,5.2,81,0.00,,OVC060,0.00,VWS V14.01,2013-03-12 11:16:00,
2013-03-12 06:21:00,34.2,28.8,30.12,SSW,210,4.4,4.7,81,0.00,,BKN060,0.00,VWS V14.01,2013-03-12 11:21:00,
2013-03-12 06:27:00,34.3,29.0,30.12,SW,219,5.0,5.2,81,0.00,,BKN060,0.00,VWS V14.01,2013-03-12 11:27:00,
2013-03-12 06:32:00,34.5,29.2,30.12,SW,222,3.9,4.7,81,0.00,,BKN060,0.00,VWS V14.01,2013-03-12 11:32:00,
2013-03-12 06:37:00,34.7,29.3,30.12,South,183,3.3,5.2,81,0.00,,BKN060,0.00,VWS V14.01,2013-03-12 11:37:00,
2013-03-12 06:42:00,34.9,29.1,30.12,SW,222,3.3,4.7,79,0.00,,SCT060,0.00,VWS V14.01,2013-03-12 11:42:00,
2013-03-12 06:47:00,34.9,29.1,30.12,WSW,248,4.4,5.2,79,0.00,,SCT060,0.00,VWS V14.01,2013-03-12 11:47:00,
2013-03-12 06:52:00,34.9,28.7,30.12,SW,236,4.4,5.2,78,0.00,,SCT060,0.00,VWS V14.01,2013-03-12 11:52:00,
2013-03-12 06:57:00,35.1,28.9,30.12,SSW,204,3.9,5.2,78,0.00,,SCT060,0.00,VWS V14.01,2013-03-12 11:57:00,
2013-03-12 07:02:00,35.4,29.2,30.12,SW,222,2.8,3.5,78,0.00,,FEW060,0.00,VWS V14.01,2013-03-12 12:02:00,
2013-03-12 07:07:00,35.4,28.8,30.12,SW,224,0.0,0.0,77,0.00,,FEW060,0.00,VWS V14.01,2013-03-12 12:07:00,
2013-03-12 07:12:00,35.4,28.8,30.12,SW,225,0.0,0.0,77,0.00,,FEW060,0.00,VWS V14.01,2013-03-12 12:12:00,
2013-03-12 07:17:00,35.4,28.4,30.12,South,184,0.0,0.0,75,0.00,,FEW060,0.00,VWS V14.01,2013-03-12 12:17:00,
2013-03-12 07:22:00,35.6,28.5,30.12,SW,226,3.9,4.1,75,0.00,,CLR,0.00,VWS V14.01,2013-03-12 12:22:00,
2013-03-12 07:27:00,35.6,28.1,30.12,SW,217,3.3,4.7,74,0.00,,CLR,0.00,VWS V14.01,2013-03-12 12:27:00,
2013-03-12 07:32:00,35.8,28.3,30.12,SW,224,4.4,6.4,74,0.00,,CLR,0.00,VWS V14.01,2013-03-12 12:32:00,
2013-03-12 07:37:00,36.0,28.5,30.12,SW,220,6.7,7.0,74,0.00,,CLR,0.00,VWS V14.01,2013-03-12 12:37:00,
2013-03-12 07:42:00,36.1,28.2,30.12,SW,224,4.4,4.7,73,0.00,,CLR,0.00,VWS V14.01,2013-03-12 12:42:00,
2013-03-12 07:48:00,36.3,28.4,30.12,SW,215,3.3,5.2,73,0.00,,CLR,0.00,VWS V14.01,2013-03-12 12:48:00,
2013-03-12 07:53:00,36.3,27.9,30.12,SSW,208,5.5,7.0,71,0.00,,CLR,0.00,VWS V14.01,2013-03-12 12:53:00,
2013-03-12 07:58:00,36.3,27.9,30.12,SW,215,3.3,5.8,71,0.00,,CLR,0.00,VWS V14.01,2013-03-12 12:58:00,
2013-03-12 08:03:00,36.3,27.5,30.12,SW,221,4.4,4.7,70,0.00,,FEW090,0.00,VWS V14.01,2013-03-12 13:03:00,
2013-03-12 08:08:00,36.3,27.5,30.12,SW,219,5.0,5.2,70,0.00,,FEW090,0.00,VWS V14.01,2013-03-12 13:08:00,
2013-03-12 08:13:00,36.5,27.6,30.12,SW,232,4.4,4.7,70,0.00,,FEW090,0.00,VWS V14.01,2013-03-12 13:13:00,
2013-03-12 08:18:00,36.7,27.8,30.12,SSW,195,3.3,4.1,70,0.00,,SCT090,0.00,VWS V14.01,2013-03-12 13:18:00,
2013-03-12 08:23:00,36.7,27.8,30.12,SW,234,3.3,4.1,70,0.00,,SCT090,0.00,VWS V14.01,2013-03-12 13:23:00,
2013-03-12 08:28:00,36.9,28.0,30.15,WSW,245,3.3,5.2,70,0.00,,SCT090,0.00,VWS V14.01,2013-03-12 13:28:00,
2013-03-12 08:33:00,37.0,28.2,30.15,SW,235,5.0,5.2,70,0.00,,SCT090,0.00,VWS V14.01,2013-03-12 13:33:00,
2013-03-12 08:38:00,37.0,28.2,30.15,SW,235,7.2,7.6,70,0.00,,SCT090,0.00,VWS V14.01,2013-03-12 13:38:00,
2013-03-12 08:43:00,37.4,28.0,30.15,WSW,256,5.0,7.6,69,0.00,,BKN090,0.00,VWS V14.01,2013-03-12 13:43:00,
2013-03-12 08:48:00,37.4,28.0,30.15,WSW,244,4.4,7.0,69,0.00,,BKN090,0.00,VWS V14.01,2013-03-12 13:48:00,
2013-03-12 08:53:00,37.6,28.2,30.15,WSW,254,5.0,6.4,69,0.00,,BKN090,0.00,VWS V14.01,2013-03-12 13:53:00,
2013-03-12 08:58:00,37.6,28.2,30.18,WSW,249,4.4,5.2,69,0.00,,BKN090,0.00,VWS V14.01,2013-03-12 13:58:00,
2013-03-12 09:03:00,37.8,28.4,30.18,WSW,255,3.3,4.7,69,0.00,,BKN080,0.00,VWS V14.01,2013-03-12 14:03:00,
2013-03-12 09:08:00,38.1,28.7,30.18,West,272,3.3,5.2,69,0.00,,BKN080,0.00,VWS V14.01,2013-03-12 14:08:00,
2013-03-12 09:13:00,38.7,29.2,30.18,West,277,6.7,7.6,69,0.00,,BKN080,0.00,VWS V14.01,2013-03-12 14:13:00,
2013-03-12 09:18:00,39.4,29.9,30.18,West,276,9.4,9.9,69,0.00,,OVC080,0.00,VWS V14.01,2013-03-12 14:18:00,
2013-03-12 09:23:00,40.3,29.8,30.18,NW,323,10.3,11.3,66,0.00,,OVC080,0.00,VWS V14.01,2013-03-12 14:23:00,
2013-03-12 09:28:00,40.8,28.3,30.18,NW,317,9.4,13.1,61,0.00,,OVC080,0.00,VWS V14.01,2013-03-12 14:28:00,
2013-03-12 09:33:00,41.2,28.6,30.18,NW,305,12.5,13.1,61,0.00,,OVC080,0.00,VWS V14.01,2013-03-12 14:33:00,
2013-03-12 09:38:00,41.2,27.6,30.18,WNW,295,8.9,13.1,58,0.00,,FEW060,0.00,VWS V14.01,2013-03-12 14:38:00,
2013-03-12 09:43:00,41.5,28.5,30.18,WNW,294,4.4,9.9,59,0.00,,FEW060,0.00,VWS V14.01,2013-03-12 14:43:00,
2013-03-12 09:49:00,41.7,28.1,30.18,NW,304,9.4,11.3,58,0.00,,FEW060,0.00,VWS V14.01,2013-03-12 14:49:00,
2013-03-12 09:53:00,41.9,28.2,30.18,WNW,295,7.2,10.8,58,0.00,,FEW060,0.00,VWS V14.01,2013-03-12 14:53:00,
2013-03-12 09:59:00,42.3,28.6,30.18,NW,322,6.7,10.5,58,0.00,,FEW060,0.00,VWS V14.01,2013-03-12 14:59:00,
2013-03-12 10:04:00,42.4,28.8,30.18,WNW,291,6.7,10.5,58,0.00,,CLR,0.00,VWS V14.01,2013-03-12 15:04:00,
2013-03-12 10:09:00,42.6,28.4,30.18,West,277,7.8,9.9,57,0.00,,CLR,0.00,VWS V14.01,2013-03-12 15:09:00,
2013-03-12 10:14:00,42.8,28.5,30.18,West,275,10.0,10.5,57,0.00,,CLR,0.00,VWS V14.01,2013-03-12 15:14:00,
2013-03-12 10:19:00,43.0,28.7,30.18,WNW,291,7.2,9.9,57,0.00,,CLR,0.00,VWS V14.01,2013-03-12 15:19:00,
2013-03-12 10:24:00,43.3,29.0,30.18,West,281,7.2,11.3,57,0.00,,FEW070,0.00,VWS V14.01,2013-03-12 15:24:00,
2013-03-12 10:29:00,43.3,28.5,30.18,West,279,5.0,9.9,55,0.00,,FEW070,0.00,VWS V14.01,2013-03-12 15:29:00,
2013-03-12 10:34:00,43.3,28.5,30.18,WNW,284,7.8,8.7,55,0.00,,FEW070,0.00,VWS V14.01,2013-03-12 15:34:00,
2013-03-12 10:39:00,43.5,28.6,30.18,WNW,294,8.9,9.9,55,0.00,,FEW070,0.00,VWS V14.01,2013-03-12 15:39:00,
2013-03-12 10:44:00,43.5,28.0,30.21,NNW,344,7.2,10.5,54,0.00,,BKN070,0.00,VWS V14.01,2013-03-12 15:44:00,
2013-03-12 10:49:00,43.9,28.4,30.21,WNW,297,6.7,9.9,54,0.00,,BKN070,0.00,VWS V14.01,2013-03-12 15:49:00,
2013-03-12 10:54:00,44.2,28.1,30.21,NW,311,5.0,8.1,53,0.00,,BKN070,0.00,VWS V14.01,2013-03-12 15:54:00,
2013-03-12 10:59:00,44.6,28.5,30.21,NW,313,9.4,10.8,53,0.00,,BKN070,0.00,VWS V14.01,2013-03-12 15:59:00,
2013-03-12 11:04:00,45.1,29.0,30.21,NNW,331,0.0,7.6,53,0.00,,BKN065,0.00,VWS V14.01,2013-03-12 16:04:00,
2013-03-12 11:09:00,46.4,29.5,30.21,NNW,341,6.7,7.6,51,0.00,,BKN065,0.00,VWS V14.01,2013-03-12 16:09:00,
2013-03-12 11:14:00,47.1,29.5,30.21,North,5,7.2,7.6,50,0.00,,BKN065,0.00,VWS V14.01,2013-03-12 16:14:00,
2013-03-12 11:19:00,47.3,29.7,30.21,NW,308,3.3,8.1,50,0.00,,BKN065,0.00,VWS V14.01,2013-03-12 16:19:00,
2013-03-12 11:24:00,47.3,29.7,30.21,North,357,9.4,9.9,50,0.00,,BKN110,0.00,VWS V14.01,2013-03-12 16:24:00,
2013-03-12 11:29:00,47.8,29.5,30.21,WNW,301,9.4,9.9,49,0.00,,BKN110,0.00,VWS V14.01,2013-03-12 16:29:00,
2013-03-12 11:34:00,48.6,30.2,30.21,West,270,4.4,10.5,49,0.00,,BKN110,0.00,VWS V14.01,2013-03-12 16:34:00,
2013-03-12 11:39:00,49.3,30.9,30.21,NNW,345,4.4,8.1,49,0.00,,BKN110,0.00,VWS V14.01,2013-03-12 16:39:00,
2013-03-12 11:45:00,49.8,30.7,30.21,NNW,343,7.2,8.7,48,0.00,,BKN110,0.00,VWS V14.01,2013-03-12 16:45:00,
2013-03-12 11:50:00,49.8,30.0,30.21,NW,326,6.7,7.0,46,0.00,,BKN110,0.00,VWS V14.01,2013-03-12 16:50:00,
2013-03-12 11:55:00,50.0,30.9,30.21,NNW,338,6.7,11.3,48,0.00,,BKN110,0.00,VWS V14.01,2013-03-12 16:55:00,
2013-03-12 12:00:00,50.2,29.6,30.21,NNW,341,7.8,8.1,45,0.00,,SCT100,0.00,VWS V14.01,2013-03-12 17:00:00,
2013-03-12 12:05:00,50.2,29.6,30.21,NW,317,7.8,9.9,45,0.00,,SCT100,0.00,VWS V14.01,2013-03-12 17:05:00,
2013-03-12 12:10:00,50.5,29.2,30.21,North,357,10.3,10.8,44,0.00,,SCT100,0.00,VWS V14.01,2013-03-12 17:10:00,
2013-03-12 12:15:00,51.3,28.3,30.21,NW,320,6.7,9.9,41,0.00,,SCT100,0.00,VWS V14.01,2013-03-12 17:15:00,
2013-03-12 12:20:00,51.6,27.9,30.21,WNW,294,7.8,11.3,40,0.00,,SCT110,0.00,VWS V14.01,2013-03-12 17:20:00,
2013-03-12 12:25:00,51.8,26.4,30.21,North,6,7.8,17.7,37,0.00,,SCT110,0.00,VWS V14.01,2013-03-12 17:25:00,
2013-03-12 12:30:00,51.6,26.2,30.21,NW,307,3.9,16.0,37,0.00,,SCT110,0.00,VWS V14.01,2013-03-12 17:30:00,
2013-03-12 12:35:00,51.4,26.0,30.21,North,353,6.1,10.8,37,0.00,,SCT110,0.00,VWS V14.01,2013-03-12 17:35:00,
2013-03-12 12:40:00,51.6,26.2,30.21,North,2,6.7,10.8,37,0.00,,CLR,0.00,VWS V14.01,2013-03-12 17:40:00,
2013-03-12 12:45:00,52.2,25.8,30.21,West,267,6.1,7.6,36,0.00,,CLR,0.00,VWS V14.01,2013-03-12 17:45:00,
2013-03-12 12:50:00,52.7,27.1,30.21,North,0,3.9,8.1,37,0.00,,CLR,0.00,VWS V14.01,2013-03-12 17:50:00,
2013-03-12 12:55:00,52.9,26.4,30.21,NE,41,3.9,7.6,36,0.00,,CLR,0.00,VWS V14.01,2013-03-12 17:55:00,
2013-03-12 13:00:00,53.1,26.6,30.21,NNW,342,9.4,9.9,36,0.00,,CLR,0.00,VWS V14.01,2013-03-12 18:00:00,
2013-03-12 13:05:00,53.2,26.8,30.21,NNE,14,7.2,7.6,36,0.00,,CLR,0.00,VWS V14.01,2013-03-12 18:05:00,
2013-03-12 13:10:00,53.8,26.3,30.21,West,275,7.8,13.1,34,0.00,,CLR,0.00,VWS V14.01,2013-03-12 18:10:00,
2013-03-12 13:15:00,53.4,26.9,30.21,NW,313,9.4,11.3,36,0.00,,CLR,0.00,VWS V14.01,2013-03-12 18:15:00,
2013-03-12 13:20:00,53.2,26.8,30.21,WNW,301,9.4,14.2,36,0.00,,CLR,0.00,VWS V14.01,2013-03-12 18:20:00,
2013-03-12 13:25:00,53.2,26.8,30.21,WNW,303,3.9,7.6,36,0.00,,CLR,0.00,VWS V14.01,2013-03-12 18:25:00,
2013-03-12 13:30:00,53.4,26.9,30.21,WNW,296,4.4,10.5,36,0.00,,CLR,0.00,VWS V14.01,2013-03-12 18:30:00,
2013-03-12 13:35:00,53.4,26.9,30.21,NW,313,9.4,10.8,36,0.00,,CLR,0.00,VWS V14.01,2013-03-12 18:35:00,
2013-03-12 13:40:00,54.0,26.5,30.21,WNW,297,6.7,7.0,34,0.00,,CLR,0.00,VWS V14.01,2013-03-12 18:40:00,
2013-03-12 13:45:00,54.5,27.0,30.21,North,9,3.3,13.1,34,0.00,,CLR,0.00,VWS V14.01,2013-03-12 18:45:00,
2013-03-12 13:51:00,54.5,27.0,30.21,NW,305,4.4,10.5,34,0.00,,CLR,0.00,VWS V14.01,2013-03-12 18:51:00,
2013-03-12 13:56:00,54.7,27.1,30.18,SW,226,6.7,9.9,34,0.00,,CLR,0.00,VWS V14.01,2013-03-12 18:56:00,
2013-03-12 14:01:00,55.6,27.9,30.18,NW,325,3.3,6.4,34,0.00,,CLR,0.00,VWS V14.01,2013-03-12 19:01:00,
2013-03-12 14:06:00,55.4,27.8,30.18,NNW,332,13.6,18.3,34,0.00,,CLR,0.00,VWS V14.01,2013-03-12 19:06:00,
2013-03-12 14:11:00,55.2,27.6,30.18,WSW,244,5.0,10.5,34,0.00,,CLR,0.00,VWS V14.01,2013-03-12 19:11:00,
2013-03-12 14:16:00,55.4,27.8,30.18,West,267,15.3,20.1,34,0.00,,CLR,0.00,VWS V14.01,2013-03-12 19:16:00,
2013-03-12 14:21:00,55.2,27.6,30.18,WSW,255,10.8,11.3,34,0.00,,CLR,0.00,VWS V14.01,2013-03-12 19:21:00,
2013-03-12 14:26:00,55.2,27.6,30.18,SW,234,6.1,7.6,34,0.00,,CLR,0.00,VWS V14.01,2013-03-12 19:26:00,
2013-03-12 14:31:00,55.2,27.6,30.18,WNW,301,6.7,13.1,34,0.00,,CLR,0.00,VWS V14.01,2013-03-12 19:31:00,
2013-03-12 14:36:00,55.4,27.8,30.18,NW,315,6.7,13.1,34,0.00,,CLR,0.00,VWS V14.01,2013-03-12 19:36:00,
2013-03-12 14:41:00,55.6,27.9,30.18,NW,311,7.2,13.1,34,0.00,,CLR,0.00,VWS V14.01,2013-03-12 19:41:00,
2013-03-12 14:46:00,55.8,28.1,30.18,WNW,294,10.0,16.6,34,0.00,,CLR,0.00,VWS V14.01,2013-03-12 19:46:00,
2013-03-12 14:52:00,55.9,28.2,30.18,WNW,290,4.4,13.7,34,0.00,,CLR,0.00,VWS V14.01,2013-03-12 19:52:00,
2013-03-12 14:57:00,55.8,28.1,30.18,WNW,286,19.1,20.1,34,0.00,,CLR,0.00,VWS V14.01,2013-03-12 19:57:00,
2013-03-12 15:02:00,55.6,27.9,30.18,WSW,255,13.6,19.5,34,0.00,,CLR,0.00,VWS V14.01,2013-03-12 20:02:00,
2013-03-12 15:07:00,55.9,28.2,30.18,West,267,16.9,17.7,34,0.00,,CLR,0.00,VWS V14.01,2013-03-12 20:07:00,
2013-03-12 15:12:00,56.1,28.4,30.18,WNW,291,17.5,20.1,34,0.00,,CLR,0.00,VWS V14.01,2013-03-12 20:12:00,
2013-03-12 15:17:00,56.1,28.4,30.18,WNW,298,10.0,10.5,34,0.00,,CLR,0.00,VWS V14.01,2013-03-12 20:17:00,
2013-03-12 15:22:00,56.1,28.4,30.18,SW,232,9.4,19.5,34,0.00,,CLR,0.00,VWS V14.01,2013-03-12 20:22:00,
2013-03-12 15:27:00,56.3,28.5,30.18,West,268,19.1,23.3,34,0.00,,CLR,0.00,VWS V14.01,2013-03-12 20:27:00,
2013-03-12 15:32:00,56.1,28.4,30.18,West,263,10.0,22.7,34,0.00,,CLR,0.00,VWS V14.01,2013-03-12 20:32:00,
2013-03-12 15:37:00,56.1,28.4,30.18,WNW,292,10.3,23.8,34,0.00,,CLR,0.00,VWS V14.01,2013-03-12 20:37:00,
2013-03-12 15:42:00,56.1,28.4,30.18,WNW,291,12.5,14.2,34,0.00,,CLR,0.00,VWS V14.01,2013-03-12 20:42:00,
2013-03-12 15:47:00,55.9,28.2,30.18,WNW,286,10.8,14.2,34,0.00,,CLR,0.00,VWS V14.01,2013-03-12 20:47:00,
2013-03-12 15:52:00,56.1,28.4,30.18,WNW,290,17.5,18.3,34,0.00,,CLR,0.00,VWS V14.01,2013-03-12 20:52:00,
2013-03-12 15:57:00,56.1,28.4,30.18,WNW,288,19.1,21.2,34,0.00,,CLR,0.00,VWS V14.01,2013-03-12 20:57:00,
2013-03-12 16:02:00,55.6,27.9,30.18,West,277,19.1,21.8,34,0.00,,CLR,0.00,VWS V14.01,2013-03-12 21:02:00,
2013-03-12 16:07:00,55.4,27.8,30.18,WNW,297,21.1,22.1,34,0.00,,CLR,0.00,VWS V14.01,2013-03-12 21:07:00,
2013-03-12 16:12:00,55.2,27.6,30.18,NW,311,10.8,11.3,34,0.00,,CLR,0.00,VWS V14.01,2013-03-12 21:12:00,
2013-03-12 16:17:00,55.6,27.9,30.18,WNW,286,18.6,29.7,34,0.00,,CLR,0.00,VWS V14.01,2013-03-12 21:17:00,
2013-03-12 16:22:00,55.4,27.8,30.18,West,281,16.9,25.0,34,0.00,,CLR,0.00,VWS V14.01,2013-03-12 21:22:00,
2013-03-12 16:28:00,55.4,27.8,30.18,WNW,286,15.8,22.7,34,0.00,,CLR,0.00,VWS V14.01,2013-03-12 21:28:00,
2013-03-12 16:33:00,55.0,28.4,30.18,West,279,12.5,18.3,36,0.00,,CLR,0.00,VWS V14.01,2013-03-12 21:33:00,
2013-03-12 16:38:00,55.4,27.8,30.18,NNW,333,12.5,22.1,34,0.00,,CLR,0.00,VWS V14.01,2013-03-12 21:38:00,
2013-03-12 16:43:00,55.0,27.4,30.18,NW,319,24.4,25.6,34,0.00,,CLR,0.00,VWS V14.01,2013-03-12 21:43:00,
2013-03-12 16:48:00,54.5,27.0,30.18,West,279,15.8,22.1,34,0.00,,CLR,0.00,VWS V14.01,2013-03-12 21:48:00,
2013-03-12 16:53:00,54.3,26.8,30.18,WNW,290,7.8,10.5,34,0.00,,CLR,0.00,VWS V14.01,2013-03-12 21:53:00,
2013-03-12 16:58:00,54.3,27.7,30.18,WNW,293,15.8,19.5,36,0.00,,CLR,0.00,VWS V14.01,2013-03-12 21:58:00,
2013-03-12 17:03:00,54.3,27.7,30.18,WNW,284,10.0,19.5,36,0.00,,CLR,0.00,VWS V14.01,2013-03-12 22:03:00,
2013-03-12 17:08:00,54.3,27.7,30.18,West,274,10.3,22.7,36,0.00,,CLR,0.00,VWS V14.01,2013-03-12 22:08:00,
2013-03-12 17:13:00,54.5,27.9,30.18,NW,309,16.4,17.7,36,0.00,,CLR,0.00,VWS V14.01,2013-03-12 22:13:00,
2013-03-12 17:18:00,54.3,27.7,30.18,WNW,286,18.0,18.9,36,0.00,,CLR,0.00,VWS V14.01,2013-03-12 22:18:00,
2013-03-12 17:23:00,54.0,27.4,30.18,West,281,10.3,14.2,36,0.00,,CLR,0.00,VWS V14.01,2013-03-12 22:23:00,
2013-03-12 17:28:00,54.1,27.5,30.18,NW,311,18.0,18.9,36,0.00,,CLR,0.00,VWS V14.01,2013-03-12 22:28:00,
2013-03-12 17:33:00,54.0,27.4,30.18,WNW,292,16.4,17.2,36,0.00,,CLR,0.00,VWS V14.01,2013-03-12 22:33:00,
2013-03-12 17:38:00,53.6,27.1,30.18,WNW,288,5.0,26.2,36,0.00,,CLR,0.00,VWS V14.01,2013-03-12 22:38:00,
2013-03-12 17:43:00,53.4,26.9,30.18,WNW,290,17.5,19.5,36,0.00,,CLR,0.00,VWS V14.01,2013-03-12 22:43:00,
2013-03-12 17:48:00,53.2,26.8,30.18,NW,313,12.5,22.1,36,0.00,,CLR,0.00,VWS V14.01,2013-03-12 22:48:00,
2013-03-12 17:53:00,53.2,26.8,30.18,WNW,299,6.7,10.8,36,0.00,,CLR,0.00,VWS V14.01,2013-03-12 22:53:00,
2013-03-12 17:58:00,53.4,26.9,30.18,NW,305,17.5,18.3,36,0.00,,CLR,0.00,VWS V14.01,2013-03-12 22:58:00,
2013-03-12 18:03:00,53.2,27.6,30.18,WNW,292,7.8,10.8,37,0.00,,CLR,0.00,VWS V14.01,2013-03-12 23:03:00,
2013-03-12 18:08:00,53.4,26.9,30.18,WNW,293,7.2,14.2,36,0.00,,CLR,0.00,VWS V14.01,2013-03-12 23:08:00,
2013-03-12 18:13:00,53.1,27.5,30.18,NW,314,7.8,13.7,37,0.00,,CLR,0.00,VWS V14.01,2013-03-12 23:13:00,
2013-03-12 18:18:00,52.9,27.3,30.18,NW,314,10.0,10.5,37,0.00,,CLR,0.00,VWS V14.01,2013-03-12 23:18:00,
2013-03-12 18:23:00,52.7,26.3,30.18,NW,314,7.2,14.2,36,0.00,,CLR,0.00,VWS V14.01,2013-03-12 23:23:00,
2013-03-12 18:28:00,52.5,26.1,30.18,WNW,287,7.2,13.1,36,0.00,,CLR,0.00,VWS V14.01,2013-03-12 23:28:00,
2013-03-12 18:33:00,52.3,26.8,30.18,NW,324,6.7,7.6,37,0.00,,CLR,0.00,VWS V14.01,2013-03-12 23:33:00,
2013-03-12 18:38:00,52.0,26.5,30.18,WNW,300,5.0,14.2,37,0.00,,CLR,0.00,VWS V14.01,2013-03-12 23:38:00,
2013-03-12 18:43:00,51.6,26.2,30.18,North,357,6.7,14.2,37,0.00,,FEW070,0.00,VWS V14.01,2013-03-12 23:43:00,
2013-03-12 18:49:00,51.3,25.9,30.18,WNW,298,3.3,14.2,37,0.00,,FEW070,0.00,VWS V14.01,2013-03-12 23:49:00,
2013-03-12 18:54:00,50.9,25.5,30.18,WNW,300,12.5,17.2,37,0.00,,FEW070,0.00,VWS V14.01,2013-03-12 23:54:00,
2013-03-12 18:59:00,50.9,25.5,30.18,NW,314,13.0,13.7,37,0.00,,FEW070,0.00,VWS V14.01,2013-03-12 23:59:00,
2013-03-12 19:04:00,50.7,25.4,30.18,NNW,344,3.9,14.2,37,0.00,,FEW070,0.00,VWS V14.01,2013-03-13 00:04:00,
2013-03-12 19:09:00,50.5,26.1,30.18,NW,307,7.8,13.7,38,0.00,,FEW070,0.00,VWS V14.01,2013-03-13 00:09:00,
2013-03-12 19:14:00,50.2,25.8,30.18,NW,305,5.0,10.8,38,0.00,,FEW070,0.00,VWS V14.01,2013-03-13 00:14:00,
2013-03-12 19:19:00,50.0,25.6,30.18,NW,306,5.0,14.8,38,0.00,,FEW080,0.00,VWS V14.01,2013-03-13 00:19:00,
2013-03-12 19:24:00,49.6,25.3,30.18,NW,320,7.2,8.1,38,0.00,,FEW080,0.00,VWS V14.01,2013-03-13 00:24:00,
2013-03-12 19:29:00,49.6,26.1,30.21,NNW,341,5.0,13.1,40,0.00,,FEW080,0.00,VWS V14.01,2013-03-13 00:29:00,
2013-03-12 19:34:00,49.5,25.9,30.21,WNW,297,4.4,11.3,40,0.00,,FEW080,0.00,VWS V14.01,2013-03-13 00:34:00,
2013-03-12 19:36:00,49.5,25.9,30.21,NNW,331,7.8,11.3,40,0.00,,FEW080,0.00,VWS V14.01,2013-03-13 00:36:00,
2013-03-12 19:38:00,49.5,25.9,30.21,NW,312,6.1,8.1,40,0.00,,FEW080,0.00,VWS V14.01,2013-03-13 00:38:00,
2013-03-12 19:40:00,49.3,25.8,30.21,WNW,284,3.9,16.0,40,0.00,,FEW080,0.00,VWS V14.01,2013-03-13 00:40:00,
2013-03-12 19:42:00,49.3,25.8,30.21,NW,321,5.0,13.1,40,0.00,,FEW080,0.00,VWS V14.01,2013-03-13 00:42:00,
2013-03-12 19:44:00,49.3,25.8,30.21,NW,322,10.8,18.9,40,0.00,,FEW080,0.00,VWS V14.01,2013-03-13 00:44:00,
2013-03-12 19:46:00,49.3,25.8,30.21,NNE,21,9.4,16.6,40,0.00,,FEW080,0.00,VWS V14.01,2013-03-13 00:46:00,
2013-03-12 19:48:00,49.1,25.6,30.21,NE,42,3.3,10.5,40,0.00,,FEW080,0.00,VWS V14.01,2013-03-13 00:48:00,
2013-03-12 19:50:00,49.1,25.6,30.21,NNW,331,7.2,10.8,40,0.00,,FEW080,0.00,VWS V14.01,2013-03-13 00:50:00,
2013-03-12 19:52:00,48.9,25.4,30.21,NW,322,6.7,11.3,40,0.00,,FEW080,0.00,VWS V14.01,2013-03-13 00:52:00,
2013-03-12 19:54:00,48.7,25.3,30.21,NW,320,7.2,10.5,40,0.00,,FEW080,0.00,VWS V14.01,2013-03-13 00:54:00,
2013-03-12 19:56:00,48.7,25.3,30.21,North,353,4.4,11.3,40,0.00,,FEW080,0.00,VWS V14.01,2013-03-13 00:56:00,
2013-03-12 19:58:00,48.7,25.3,30.21,WNW,299,10.3,14.2,40,0.00,,FEW080,0.00,VWS V14.01,2013-03-13 00:58:00,
2013-03-12 20:00:00,48.6,25.1,30.21,NW,317,10.8,14.2,40,0.00,,FEW080,0.00,VWS V14.01,2013-03-13 01:00:00,
2013-03-12 20:02:00,48.6,25.1,30.21,NW,308,4.4,13.7,40,0.00,,FEW080,0.00,VWS V14.01,2013-03-13 01:02:00,
2013-03-12 20:12:00,47.8,24.5,30.24,NW,308,3.9,7.0,40,0.00,,FEW080,0.00,VWS V14.01,2013-03-13 01:12:00,
2013-03-12 20:17:00,47.5,24.1,30.24,NW,326,5.0,11.3,40,0.00,,FEW070,0.00,VWS V14.01,2013-03-13 01:17:00,
2013-03-12 20:22:00,47.5,24.1,30.24,NW,307,7.2,14.2,40,0.00,,CLR,0.00,VWS V14.01,2013-03-13 01:22:00,
2013-03-12 20:27:00,47.3,24.0,30.24,West,275,10.0,13.1,40,0.00,,CLR,0.00,VWS V14.01,2013-03-13 01:27:00,
2013-03-12 20:32:00,47.3,24.0,30.24,WNW,302,7.8,16.0,40,0.00,,CLR,0.00,VWS V14.01,2013-03-13 01:32:00,
2013-03-12 20:37:00,47.1,23.8,30.24,NNW,330,4.4,13.1,40,0.00,,CLR,0.00,VWS V14.01,2013-03-13 01:37:00,
2013-03-12 20:43:00,46.9,23.6,30.24,WNW,298,5.0,6.4,40,0.00,,CLR,0.00,VWS V14.01,2013-03-13 01:43:00,
2013-03-12 20:48:00,46.6,22.5,30.24,NNE,15,6.1,10.8,38,0.00,,CLR,0.00,VWS V14.01,2013-03-13 01:48:00,
2013-03-12 20:53:00,46.4,22.4,30.24,North,353,10.3,11.3,38,0.00,,CLR,0.00,VWS V14.01,2013-03-13 01:53:00,
2013-03-12 20:58:00,45.9,22.7,30.27,NW,310,6.7,10.8,40,0.00,,CLR,0.00,VWS V14.01,2013-03-13 01:58:00,
2013-03-12 21:03:00,45.7,22.5,30.27,NNW,334,5.0,9.9,40,0.00,,CLR,0.00,VWS V14.01,2013-03-13 02:03:00,
2013-03-12 21:08:00,45.5,22.4,30.27,NNW,346,7.2,10.5,40,0.00,,CLR,0.00,VWS V14.01,2013-03-13 02:08:00,
2013-03-12 21:13:00,45.3,22.2,30.27,NNW,346,13.0,13.7,40,0.00,,CLR,0.00,VWS V14.01,2013-03-13 02:13:00,
2013-03-12 21:18:00,45.1,22.0,30.27,NNE,32,3.3,7.6,40,0.00,,CLR,0.00,VWS V14.01,2013-03-13 02:18:00,
2013-03-12 21:23:00,44.8,21.7,30.27,NW,306,6.7,7.6,40,0.00,,CLR,0.00,VWS V14.01,2013-03-13 02:23:00,
2013-03-12 21:28:00,44.6,21.5,30.27,WNW,301,4.4,8.1,40,0.00,,CLR,0.00,VWS V14.01,2013-03-13 02:28:00,
2013-03-12 21:33:00,44.4,21.4,30.27,WNW,300,5.0,8.1,40,0.00,,CLR,0.00,VWS V14.01,2013-03-13 02:33:00,
2013-03-12 21:38:00,44.1,21.1,30.27,WNW,284,10.3,13.1,40,0.00,,CLR,0.00,VWS V14.01,2013-03-13 02:38:00,
2013-03-12 21:43:00,44.1,20.3,30.27,WNW,301,6.7,10.5,38,0.00,,CLR,0.00,VWS V14.01,2013-03-13 02:43:00,
2013-03-12 21:48:00,44.1,20.3,30.27,WNW,299,7.2,9.3,38,0.00,,CLR,0.00,VWS V14.01,2013-03-13 02:48:00,
2013-03-12 21:53:00,43.9,20.1,30.27,WNW,301,13.0,17.2,38,0.00,,CLR,0.00,VWS V14.01,2013-03-13 02:53:00,
2013-03-12 21:58:00,43.5,19.8,30.27,WNW,297,14.7,15.4,38,0.00,,CLR,0.00,VWS V14.01,2013-03-13 02:58:00,
2013-03-12 22:03:00,43.5,19.8,30.27,NW,318,6.7,14.2,38,0.00,,CLR,0.00,VWS V14.01,2013-03-13 03:03:00,
2013-03-12 22:08:00,43.3,19.6,30.27,WNW,284,6.7,10.8,38,0.00,,CLR,0.00,VWS V14.01,2013-03-13 03:08:00,
2013-03-12 22:13:00,43.0,19.3,30.30,NW,317,3.3,7.0,38,0.00,,CLR,0.00,VWS V14.01,2013-03-13 03:13:00,
2013-03-12 22:18:00,42.8,19.1,30.30,NNW,332,3.3,8.1,38,0.00,,CLR,0.00,VWS V14.01,2013-03-13 03:18:00,
2013-03-12 22:23:00,42.4,18.8,30.30,WNW,290,6.1,7.0,38,0.00,,CLR,0.00,VWS V14.01,2013-03-13 03:23:00,
2013-03-12 22:28:00,42.1,18.5,30.30,WNW,297,0.0,7.0,38,0.00,,CLR,0.00,VWS V14.01,2013-03-13 03:28:00,
2013-03-12 22:33:00,41.7,18.2,30.30,WNW,298,7.2,8.1,38,0.00,,CLR,0.00,VWS V14.01,2013-03-13 03:33:00,
2013-03-12 22:38:00,41.5,18.8,30.30,WNW,286,3.9,4.1,40,0.00,,CLR,0.00,VWS V14.01,2013-03-13 03:38:00,
2013-03-12 22:43:00,41.2,18.5,30.30,WNW,295,3.9,10.5,40,0.00,,CLR,0.00,VWS V14.01,2013-03-13 03:43:00,
2013-03-12 22:48:00,41.2,18.5,30.30,West,281,5.0,5.2,40,0.00,,CLR,0.00,VWS V14.01,2013-03-13 03:48:00,
2013-03-12 22:53:00,41.0,18.3,30.30,NNW,345,3.9,4.7,40,0.00,,CLR,0.00,VWS V14.01,2013-03-13 03:53:00,
2013-03-12 22:58:00,41.0,18.3,30.30,North,353,4.4,7.0,40,0.00,,CLR,0.00,VWS V14.01,2013-03-13 03:58:00,
2013-03-12 23:00:00,41.0,18.3,30.30,North,7,3.3,7.6,40,0.00,,CLR,0.00,VWS V14.01,2013-03-13 04:00:00,
2013-03-12 23:05:00,41.0,18.3,30.30,NW,318,4.4,7.6,40,0.00,,CLR,0.00,VWS V14.01,2013-03-13 04:05:00,
2013-03-12 23:10:00,41.0,18.3,30.30,WNW,302,3.9,5.2,40,0.00,,CLR,0.00,VWS V14.01,2013-03-13 04:10:00,
2013-03-12 23:15:00,41.0,18.3,30.30,NW,322,0.0,8.1,40,0.00,,CLR,0.00,VWS V14.01,2013-03-13 04:15:00,
2013-03-12 23:20:00,40.6,18.0,30.30,NNW,334,4.4,4.7,40,0.00,,CLR,0.00,VWS V14.01,2013-03-13 04:20:00,
2013-03-12 23:25:00,40.3,17.7,30.30,North,353,6.1,6.4,40,0.00,,CLR,0.00,VWS V14.01,2013-03-13 04:25:00,
2013-03-12 23:30:00,39.7,17.2,30.30,NNE,19,5.0,7.6,40,0.00,,CLR,0.00,VWS V14.01,2013-03-13 04:30:00,
2013-03-12 23:35:00,39.4,16.9,30.30,NNW,342,4.4,7.0,40,0.00,,CLR,0.00,VWS V14.01,2013-03-13 04:35:00,
2013-03-12 23:40:00,39.0,17.3,30.30,NNW,337,3.9,4.1,41,0.00,,CLR,0.00,VWS V14.01,2013-03-13 04:40:00,
2013-03-12 23:45:00,38.7,17.0,30.30,North,353,3.3,5.2,41,0.00,,CLR,0.00,VWS V14.01,2013-03-13 04:45:00,
2013-03-12 23:50:00,38.5,16.8,30.30,North,6,0.0,0.0,41,0.00,,CLR,0.00,VWS V14.01,2013-03-13 04:50:00,
2013-03-12 23:55:00,38.1,16.5,30.30,NE,55,5.0,5.2,41,0.00,,CLR,0.00,VWS V14.01,2013-03-13 04:55:00,